KCGI/CGI METAR and TAF weather

Enter ICAO airport designator
Station Type Date Time Source
KCGI METAR 2018/04/19 12:53 UTC NOAA

KCGI 191253Z 34014KT 10SM OVC042 05/M03 A3027 RMK AO2 SLP252 T00501033


Station Type Date Time Source
KCGI Decoded METAR 2018/04/19 12:53 UTC NOAA

CAPE GIRARDEAU REGIONAL, MO, United States (KCGI) 37-14N 089-35W 102M
Apr 19, 2018 - 08:53 AM EDT / 2018.04.19 1253 UTC
Wind: from the NNW (340 degrees) at 16 MPH (14 KT):0
Visibility: 10 mile(s):0
Sky conditions: overcast
Temperature: 41.0 F (5.0 C)
Dew Point: 26.1 F (-3.3 C)
Relative Humidity: 54%
Pressure (altimeter): 30.27 in. Hg (1025 hPa)
ob: KCGI 191253Z 34014KT 10SM OVC042 05/M03 A3027 RMK AO2 SLP252 T00501033
cycle: 13

Station Type Date Time Source
KCGI TAF 2018/04/19 12:22 UTC NOAA

TAF KCGI 191120Z 1912/2012 32015G25KT P6SM SCT025 BKN040
TEMPO 1915/1919 BKN025
FM191900 36013G20KT P6SM BKN040
FM192300 01010KT P6SM SCT040
FM200200 VRB03KT P6SM SKC


Example: see airport list